createdAt,value
2019-05-09T00:00:06.243Z,96804.34
2019-05-09T00:02:37.643Z,96805.90
2019-05-09T00:05:04.537Z,96806.83
2019-05-09T00:07:31.046Z,96805.66
2019-05-09T00:09:57.512Z,96804.52
2019-05-09T00:12:24.011Z,96803.37
2019-05-09T00:14:50.476Z,96800.50
2019-05-09T00:17:16.991Z,96803.20
2019-05-09T00:19:43.971Z,96801.05
2019-05-09T00:22:10.761Z,96796.34
2019-05-09T00:24:37.527Z,96806.05
2019-05-09T00:27:04.073Z,96811.17
2019-05-09T00:29:35.978Z,96804.36
2019-05-09T00:32:15.818Z,96798.34
2019-05-09T00:34:49.096Z,96807.75
2019-05-09T00:37:15.587Z,96793.39
2019-05-09T00:39:43.415Z,96792.71
2019-05-09T00:42:09.980Z,96787.13
2019-05-09T00:44:38.380Z,96780.73
2019-05-09T00:47:20.533Z,96778.15
2019-05-09T00:49:47.143Z,96786.02
2019-05-09T00:52:14.239Z,96789.86
2019-05-09T00:54:40.744Z,96793.55
2019-05-09T00:57:07.196Z,96799.03
2019-05-09T00:59:33.701Z,96805.44
2019-05-09T01:02:00.204Z,96813.75
2019-05-09T01:04:27.731Z,96816.20
2019-05-09T01:06:54.332Z,96817.51
2019-05-09T01:09:24.016Z,96834.07
2019-05-09T01:11:50.544Z,96826.77
2019-05-09T01:14:17.116Z,96822.01
2019-05-09T01:16:44.632Z,96805.44
2019-05-09T01:19:11.167Z,96801.75
2019-05-09T01:21:37.628Z,96796.25
2019-05-09T01:24:05.228Z,96799.78
2019-05-09T01:26:33.377Z,96805.94
2019-05-09T01:29:00.124Z,96800.81
2019-05-09T01:31:26.699Z,96812.88
2019-05-09T01:34:18.596Z,96807.35
2019-05-09T01:37:04.111Z,96814.39
2019-05-09T01:39:30.912Z,96810.98
2019-05-09T01:41:57.482Z,96813.02
2019-05-09T01:44:24.413Z,96818.66
2019-05-09T01:46:51.150Z,96823.98
2019-05-09T01:49:17.603Z,96833.73
2019-05-09T01:51:44.529Z,96837.27
2019-05-09T01:54:13.236Z,96846.79
2019-05-09T01:56:39.617Z,96847.43
2019-05-09T01:59:06.101Z,96838.83
2019-05-09T02:01:34.432Z,96843.53
2019-05-09T02:04:01.038Z,96836.36
2019-05-09T02:06:27.997Z,96840.50
2019-05-09T02:08:54.808Z,96840.48
2019-05-09T02:11:23.627Z,96844.31
2019-05-09T02:13:50.097Z,96855.47
2019-05-09T02:16:38.849Z,96853.09
2019-05-09T02:19:30.650Z,96847.65
2019-05-09T02:21:57.120Z,96855.34
2019-05-09T02:24:23.734Z,96853.72
2019-05-09T02:26:50.445Z,96854.91
2019-05-09T02:29:16.922Z,96855.27
2019-05-09T02:31:44.569Z,96853.91
2019-05-09T02:34:14.700Z,96857.22
2019-05-09T02:36:39.798Z,96863.13
2019-05-09T02:39:08.991Z,96863.53
2019-05-09T02:41:34.884Z,96872.27
2019-05-09T02:44:01.340Z,96869.98
2019-05-09T02:46:43.553Z,96878.38
2019-05-09T02:49:10.040Z,96873.84
2019-05-09T02:51:38.710Z,96880.64
2019-05-09T02:54:05.350Z,96873.39
2019-05-09T02:56:31.812Z,96873.98
2019-05-09T02:59:04.867Z,96862.51
2019-05-09T03:01:39.241Z,96871.03
2019-05-09T03:04:08.451Z,96872.38
2019-05-09T03:06:34.405Z,96871.47
2019-05-09T03:09:01.618Z,96869.46
2019-05-09T03:11:29.119Z,96870.77
2019-05-09T03:13:58.501Z,96853.35
2019-05-09T03:16:24.513Z,96855.16
2019-05-09T03:18:51.035Z,96864.86
2019-05-09T03:21:29.453Z,96858.07
2019-05-09T03:23:54.489Z,96866.11
2019-05-09T03:26:29.086Z,96858.97
2019-05-09T03:29:19.766Z,96865.84
2019-05-09T03:31:50.068Z,96863.55
2019-05-09T03:34:15.168Z,96868.31
2019-05-09T03:36:41.841Z,96869.30
2019-05-09T03:39:08.593Z,96864.77
2019-05-09T03:41:35.471Z,96867.53
2019-05-09T03:44:02.061Z,96867.98
2019-05-09T03:46:39.301Z,96860.87
2019-05-09T03:49:07.538Z,96862.03
2019-05-09T03:51:34.238Z,96856.52
2019-05-09T03:54:03.344Z,96860.51
2019-05-09T03:56:34.841Z,96855.20
2019-05-09T03:59:01.358Z,96852.73
2019-05-09T04:01:28.243Z,96850.02
2019-05-09T04:03:54.814Z,96859.04
2019-05-09T04:06:21.337Z,96861.55
2019-05-09T04:08:54.023Z,96861.05
2019-05-09T04:11:32.618Z,96868.24
2019-05-09T04:14:23.306Z,96869.16
2019-05-09T04:16:49.949Z,96873.48
2019-05-09T04:19:17.941Z,96874.33
2019-05-09T04:21:54.704Z,96884.34
2019-05-09T04:24:22.283Z,96887.66
2019-05-09T04:27:12.727Z,96895.92
2019-05-09T04:29:39.237Z,96905.67
2019-05-09T04:32:11.227Z,96909.14
2019-05-09T04:34:38.568Z,96912.38
2019-05-09T04:37:05.390Z,96912.20
2019-05-09T04:39:32.075Z,96912.88
2019-05-09T04:42:05.343Z,96917.81
2019-05-09T04:44:37.369Z,96914.48
2019-05-09T04:47:05.031Z,96917.75
2019-05-09T04:49:39.267Z,96910.64
2019-05-09T04:52:01.148Z,96910.89
2019-05-09T04:54:38.527Z,96912.27
2019-05-09T04:57:07.508Z,96912.73
2019-05-09T04:59:33.529Z,96918.45
2019-05-09T05:02:27.625Z,96918.44
2019-05-09T05:05:03.696Z,96919.81
2019-05-09T05:07:30.277Z,96914.58
2019-05-09T05:09:57.591Z,96922.37
2019-05-09T05:12:24.206Z,96924.41
2019-05-09T05:14:59.280Z,96923.05
2019-05-09T05:17:30.372Z,96930.25
2019-05-09T05:19:55.378Z,96932.78
2019-05-09T05:22:28.465Z,96927.00
2019-05-09T05:25:02.388Z,96927.25
2019-05-09T05:27:28.953Z,96919.20
2019-05-09T05:29:58.103Z,96912.87
2019-05-09T05:32:49.685Z,96909.69
2019-05-09T05:35:25.244Z,96909.22
2019-05-09T05:37:54.250Z,96902.91
2019-05-09T05:40:20.947Z,96899.84
2019-05-09T05:42:59.664Z,96901.48
2019-05-09T05:45:28.534Z,96897.89
2019-05-09T05:48:07.822Z,96899.36
2019-05-09T05:50:34.569Z,96890.31
2019-05-09T05:53:01.121Z,96889.34
2019-05-09T05:55:27.696Z,96891.11
2019-05-09T05:57:54.165Z,96898.00
2019-05-09T06:00:22.560Z,96893.08
2019-05-09T06:02:49.066Z,96885.66
2019-05-09T06:05:18.682Z,96890.17
2019-05-09T06:07:45.376Z,96889.19
2019-05-09T06:10:14.464Z,96884.64
2019-05-09T06:12:43.797Z,96884.05
2019-05-09T06:15:10.447Z,96893.39
2019-05-09T06:17:38.056Z,96890.25
2019-05-09T06:20:04.819Z,96885.14
2019-05-09T06:22:31.248Z,96888.05
2019-05-09T06:25:00.942Z,96890.20
2019-05-09T06:27:28.787Z,96895.84
2019-05-09T06:29:58.062Z,96890.38
2019-05-09T06:32:24.328Z,96887.81
2019-05-09T06:34:53.108Z,96886.52
2019-05-09T06:37:27.506Z,96891.48
2019-05-09T06:39:58.090Z,96890.03
2019-05-09T06:42:25.451Z,96888.23
2019-05-09T06:45:07.747Z,96889.97
2019-05-09T06:47:38.138Z,96886.40
2019-05-09T06:50:07.954Z,96887.05
2019-05-09T06:52:34.754Z,96900.41
2019-05-09T06:55:04.700Z,96895.64
2019-05-09T06:57:31.449Z,96889.19
2019-05-09T06:59:58.301Z,96879.77
2019-05-09T07:02:39.454Z,96894.35
2019-05-09T07:05:14.331Z,96893.81
2019-05-09T07:07:53.471Z,96895.08
2019-05-09T07:10:22.487Z,96886.36
2019-05-09T07:12:49.010Z,96892.58
2019-05-09T07:15:18.278Z,96895.75
2019-05-09T07:17:45.365Z,96902.47
2019-05-09T07:20:12.176Z,96905.16
2019-05-09T07:22:48.243Z,96917.98
2019-05-09T07:25:47.866Z,96908.71
2019-05-09T07:28:17.958Z,96905.83
2019-05-09T07:30:57.993Z,96900.72
2019-05-09T07:33:43.644Z,96899.66
2019-05-09T07:36:10.459Z,96909.50
2019-05-09T07:38:38.481Z,96908.15
2019-05-09T07:41:05.512Z,96907.63
2019-05-09T07:43:32.061Z,96899.47
2019-05-09T07:46:30.560Z,96901.15
2019-05-09T07:48:58.095Z,96897.70
2019-05-09T07:51:24.562Z,96903.53
2019-05-09T07:53:51.230Z,96895.47
2019-05-09T07:56:18.832Z,96886.47
2019-05-09T07:58:47.628Z,96895.30
2019-05-09T08:01:14.240Z,96902.15
2019-05-09T08:03:40.941Z,96896.29
2019-05-09T08:06:10.616Z,96892.41
2019-05-09T08:08:40.926Z,96893.59
2019-05-09T08:11:08.851Z,96892.43
2019-05-09T08:13:35.740Z,96890.17
2019-05-09T08:16:02.423Z,96884.31
2019-05-09T08:18:28.999Z,96865.26
2019-05-09T08:21:00.721Z,96884.32
2019-05-09T08:23:27.568Z,96888.91
2019-05-09T08:25:54.229Z,96888.45
2019-05-09T08:28:20.904Z,96888.20
2019-05-09T08:30:48.526Z,96885.69
2019-05-09T08:33:18.415Z,96886.23
2019-05-09T08:35:49.832Z,96890.05
2019-05-09T08:38:13.292Z,96890.17
2019-05-09T08:40:40.432Z,96902.75
2019-05-09T08:43:07.652Z,96892.90
2019-05-09T08:45:34.323Z,96888.93
2019-05-09T08:48:00.953Z,96894.77
2019-05-09T08:50:32.618Z,96894.88
2019-05-09T08:52:59.210Z,96872.00
2019-05-09T08:55:27.831Z,96893.25
2019-05-09T08:57:55.651Z,96900.00
2019-05-09T09:00:22.568Z,96896.59
2019-05-09T09:02:49.132Z,96906.67
2019-05-09T09:05:18.706Z,96900.94
2019-05-09T09:07:48.264Z,96895.13
2019-05-09T09:10:18.695Z,96890.66
2019-05-09T09:12:47.683Z,96901.77
2019-05-09T09:15:13.804Z,96897.52
2019-05-09T09:17:40.921Z,96900.08
2019-05-09T09:20:08.357Z,96900.56
2019-05-09T09:22:37.384Z,96899.11
2019-05-09T09:25:04.801Z,96904.78
2019-05-09T09:27:32.103Z,96897.25
2019-05-09T09:30:15.245Z,96891.50
2019-05-09T09:32:28.135Z,96886.18
2019-05-09T09:34:54.939Z,96886.65
2019-05-09T09:37:21.642Z,96891.33
2019-05-09T09:39:50.678Z,96895.20
2019-05-09T09:42:19.991Z,96891.68
2019-05-09T09:44:48.935Z,96894.60
2019-05-09T09:47:23.453Z,96895.96
2019-05-09T09:49:55.114Z,96887.52
2019-05-09T09:52:24.681Z,96892.45
2019-05-09T09:54:51.571Z,96896.50
2019-05-09T09:57:19.073Z,96889.13
2019-05-09T10:00:07.548Z,96890.56
2019-05-09T10:02:37.871Z,96903.10
2019-05-09T10:05:07.573Z,96897.39
2019-05-09T10:07:33.612Z,96897.80
2019-05-09T10:10:02.664Z,96896.45
2019-05-09T10:12:29.290Z,96885.72
2019-05-09T10:15:05.075Z,96886.94
2019-05-09T10:17:58.314Z,96892.13
2019-05-09T10:20:44.758Z,96890.28
2019-05-09T10:23:18.172Z,96882.07
2019-05-09T10:25:41.159Z,96894.41
2019-05-09T10:28:08.692Z,96884.45
2019-05-09T10:30:38.006Z,96887.19
2019-05-09T10:33:04.023Z,96880.75
2019-05-09T10:35:30.833Z,96884.09
2019-05-09T10:37:59.032Z,96870.66
2019-05-09T10:40:28.150Z,96873.86
2019-05-09T10:43:02.825Z,96875.87
2019-05-09T10:45:40.749Z,96881.21
2019-05-09T10:48:05.497Z,96881.17
2019-05-09T10:50:34.330Z,96869.34
2019-05-09T10:53:01.390Z,96867.63
2019-05-09T10:55:28.416Z,96871.21
2019-05-09T10:57:55.067Z,96873.45
2019-05-09T11:00:39.257Z,96865.03
2019-05-09T11:03:01.348Z,96862.59
2019-05-09T11:05:27.899Z,96850.34
2019-05-09T11:07:54.517Z,96858.31
2019-05-09T11:10:28.400Z,96855.30
2019-05-09T11:12:58.840Z,96859.89
2019-05-09T11:15:25.419Z,96862.23
2019-05-09T11:17:52.318Z,96865.84
2019-05-09T11:20:21.285Z,96859.55
2019-05-09T11:22:47.839Z,96863.63
2019-05-09T11:25:14.733Z,96864.35
2019-05-09T11:27:42.402Z,96867.06
2019-05-09T11:30:09.355Z,96858.50
2019-05-09T11:32:38.441Z,96857.38
2019-05-09T11:35:05.146Z,96852.97
2019-05-09T11:37:32.227Z,96860.02
2019-05-09T11:39:59.021Z,96852.91
2019-05-09T11:42:25.903Z,96857.66
2019-05-09T11:44:53.688Z,96857.83
2019-05-09T11:47:32.029Z,96855.55
2019-05-09T11:49:49.116Z,96849.22
2019-05-09T11:52:18.184Z,96854.84
2019-05-09T11:55:02.498Z,96849.00
2019-05-09T11:57:31.507Z,96842.57
2019-05-09T11:59:58.318Z,96837.61
2019-05-09T12:02:27.809Z,96848.30
2019-05-09T12:04:54.037Z,96838.95
2019-05-09T12:07:21.963Z,96841.62
2019-05-09T12:09:51.372Z,96848.08
2019-05-09T12:12:19.740Z,96855.19
2019-05-09T12:14:49.811Z,96848.19
2019-05-09T12:17:20.024Z,96853.05
2019-05-09T12:19:49.390Z,96854.73
2019-05-09T12:22:19.050Z,96853.33
2019-05-09T12:24:48.268Z,96852.72
2019-05-09T12:27:18.880Z,96856.17
2019-05-09T12:29:48.370Z,96859.13
2019-05-09T12:32:18.730Z,96864.99
2019-05-09T12:34:48.190Z,96869.65
2019-05-09T12:37:20.029Z,96861.90
2019-05-09T12:39:48.089Z,96864.28
2019-05-09T12:42:15.221Z,96862.45
2019-05-09T12:44:43.609Z,96870.13
2019-05-09T12:47:10.102Z,96869.02
2019-05-09T12:49:39.237Z,96855.90
2019-05-09T12:52:08.034Z,96852.63
2019-05-09T12:54:35.515Z,96851.33
2019-05-09T12:57:01.981Z,96851.13
2019-05-09T12:59:44.513Z,96856.59
2019-05-09T13:02:01.765Z,96859.02
2019-05-09T13:04:28.364Z,96855.88
2019-05-09T13:06:55.291Z,96854.49
2019-05-09T13:09:22.059Z,96855.80
2019-05-09T13:11:48.514Z,96856.13
2019-05-09T13:14:15.034Z,96860.84
2019-05-09T13:17:13.672Z,96866.59
2019-05-09T13:19:47.798Z,96862.86
2019-05-09T13:22:13.896Z,96860.47
2019-05-09T13:24:40.512Z,96861.05
2019-05-09T13:27:07.916Z,96854.28
2019-05-09T13:29:34.650Z,96849.56
2019-05-09T13:32:03.455Z,96846.09
2019-05-09T13:34:30.494Z,96845.05
2019-05-09T13:36:59.012Z,96844.75
2019-05-09T13:39:27.810Z,96852.38
2019-05-09T13:41:58.309Z,96852.59
2019-05-09T13:44:24.687Z,96844.84
2019-05-09T13:46:51.951Z,96848.50
2019-05-09T13:49:19.423Z,96845.80
2019-05-09T13:51:54.815Z,96847.66
2019-05-09T13:54:14.586Z,96847.98
2019-05-09T13:56:41.239Z,96849.94
2019-05-09T13:59:08.478Z,96848.13
2019-05-09T14:01:37.776Z,96860.72
2019-05-09T14:04:04.808Z,96855.42
2019-05-09T14:06:32.461Z,96856.98
2019-05-09T14:09:04.651Z,96873.30
2019-05-09T14:11:31.182Z,96877.17
2019-05-09T14:13:58.231Z,96878.20
2019-05-09T14:16:25.117Z,96885.05
2019-05-09T14:18:55.411Z,96890.36
2019-05-09T14:21:24.511Z,96887.70
2019-05-09T14:24:03.065Z,96897.41
2019-05-09T14:26:24.160Z,96901.95
2019-05-09T14:28:50.705Z,96902.55
2019-05-09T14:31:18.647Z,96904.91
2019-05-09T14:33:47.636Z,96907.01
2019-05-09T14:36:14.276Z,96910.86
2019-05-09T14:38:41.390Z,96908.73
2019-05-09T14:41:13.522Z,96915.68
2019-05-09T14:43:44.998Z,96911.47
2019-05-09T14:46:11.674Z,96902.50
2019-05-09T14:48:38.538Z,96907.60
2019-05-09T14:51:07.651Z,96898.92
2019-05-09T14:53:34.427Z,96900.03
2019-05-09T14:56:03.235Z,96910.66
2019-05-09T14:58:29.800Z,96907.28
2019-05-09T15:01:00.682Z,96905.48
2019-05-09T15:03:27.649Z,96892.78
2019-05-09T15:05:53.609Z,96888.79
2019-05-09T15:08:20.438Z,96891.64
2019-05-09T15:10:46.925Z,96893.91
2019-05-09T15:13:14.541Z,96903.09
2019-05-09T15:15:41.127Z,96897.96
2019-05-09T15:18:08.204Z,96892.33
2019-05-09T15:20:37.949Z,96885.09
2019-05-09T15:23:04.379Z,96888.52
2019-05-09T15:25:30.950Z,96881.39
2019-05-09T15:27:58.073Z,96883.13
2019-05-09T15:30:24.679Z,96877.96
2019-05-09T15:33:08.356Z,96881.05
2019-05-09T15:35:54.654Z,96876.11
2019-05-09T15:38:22.505Z,96883.16
2019-05-09T15:40:49.294Z,96880.48
2019-05-09T15:43:18.585Z,96884.36
2019-05-09T15:45:51.341Z,96880.73
2019-05-09T15:48:18.180Z,96879.63
2019-05-09T15:50:45.018Z,96878.16
2019-05-09T15:53:11.992Z,96875.98
2019-05-09T15:55:38.582Z,96878.64
2019-05-09T15:58:15.111Z,96878.38
2019-05-09T16:01:03.660Z,96872.13
2019-05-09T16:03:30.158Z,96871.66
2019-05-09T16:05:58.412Z,96864.89
2019-05-09T16:08:25.429Z,96865.69
2019-05-09T16:10:52.023Z,96870.09
2019-05-09T16:13:18.592Z,96863.53
2019-05-09T16:15:45.345Z,96865.78
2019-05-09T16:18:12.221Z,96864.34
2019-05-09T16:20:41.287Z,96868.81
2019-05-09T16:23:09.920Z,96866.14
2019-05-09T16:25:38.676Z,96863.27
2019-05-09T16:28:07.828Z,96864.66
2019-05-09T16:30:33.767Z,96873.89
2019-05-09T16:33:00.355Z,96877.31
2019-05-09T16:35:28.637Z,96874.75
2019-05-09T16:38:10.837Z,96868.79
2019-05-09T16:41:08.777Z,96872.88
2019-05-09T16:43:35.509Z,96879.02
2019-05-09T16:46:02.379Z,96875.58
2019-05-09T16:48:29.232Z,96876.74
2019-05-09T16:51:03.119Z,96876.53
2019-05-09T16:53:24.314Z,96877.88
2019-05-09T16:55:50.848Z,96880.03
2019-05-09T16:58:18.691Z,96881.95
2019-05-09T17:00:50.615Z,96882.31
2019-05-09T17:03:17.932Z,96881.68
2019-05-09T17:05:44.466Z,96887.57
2019-05-09T17:08:11.453Z,96883.62
2019-05-09T17:10:39.078Z,96886.27
2019-05-09T17:13:19.296Z,96890.17
2019-05-09T17:15:48.372Z,96889.70
2019-05-09T17:18:15.110Z,96896.02
2019-05-09T17:21:17.794Z,96898.75
2019-05-09T17:23:34.847Z,96896.30
2019-05-09T17:26:01.438Z,96904.95
2019-05-09T17:28:28.554Z,96909.65
2019-05-09T17:30:57.807Z,96911.52
2019-05-09T17:33:24.049Z,96922.39
2019-05-09T17:35:50.862Z,96925.47
2019-05-09T17:38:18.171Z,96921.74
2019-05-09T17:40:44.689Z,96922.39
2019-05-09T17:43:14.447Z,96925.23
2019-05-09T17:45:42.389Z,96924.28
2019-05-09T17:48:08.977Z,96930.67
2019-05-09T17:50:38.669Z,96925.27
2019-05-09T17:53:08.614Z,96930.33
2019-05-09T17:55:38.411Z,96928.80
2019-05-09T17:58:08.480Z,96935.45
2019-05-09T18:00:35.191Z,96936.35
2019-05-09T18:03:02.097Z,96939.98
2019-05-09T18:05:28.669Z,96933.16
2019-05-09T18:08:18.550Z,96933.78
2019-05-09T18:10:44.710Z,96932.05
2019-05-09T18:13:23.782Z,96937.27
2019-05-09T18:15:48.555Z,96932.42
2019-05-09T18:18:15.104Z,96932.27
2019-05-09T18:20:42.124Z,96934.08
2019-05-09T18:23:09.067Z,96936.05
2019-05-09T18:25:37.952Z,96941.22
2019-05-09T18:28:04.909Z,96941.95
2019-05-09T18:30:31.522Z,96946.03
2019-05-09T18:33:11.622Z,96945.00
2019-05-09T18:35:39.983Z,96949.34
2019-05-09T18:38:07.912Z,96947.32
2019-05-09T18:40:34.637Z,96953.52
2019-05-09T18:43:01.284Z,96959.50
2019-05-09T18:45:31.869Z,96963.45
2019-05-09T18:47:58.698Z,96965.62
2019-05-09T18:50:25.641Z,96963.67
2019-05-09T18:52:52.874Z,96963.21
2019-05-09T18:55:20.103Z,96964.27
2019-05-09T18:57:46.658Z,96966.39
2019-05-09T19:00:15.669Z,96964.52
2019-05-09T19:02:44.277Z,96974.27
2019-05-09T19:05:13.156Z,96972.96
2019-05-09T19:07:40.211Z,96974.70
2019-05-09T19:10:07.162Z,96975.63
2019-05-09T19:12:33.752Z,96975.02
2019-05-09T19:15:00.992Z,96977.94
2019-05-09T19:17:53.087Z,96987.05
2019-05-09T19:20:33.848Z,96994.16
2019-05-09T19:23:00.679Z,97000.27
2019-05-09T19:25:27.208Z,97000.85
2019-05-09T19:27:53.698Z,97002.79
2019-05-09T19:30:20.906Z,97006.42
2019-05-09T19:32:47.560Z,97013.11
2019-05-09T19:35:14.189Z,97012.73
2019-05-09T19:37:40.649Z,97015.13
2019-05-09T19:40:07.203Z,97022.08
2019-05-09T19:42:33.760Z,97019.06
2019-05-09T19:45:00.302Z,97018.61
2019-05-09T19:47:27.124Z,97020.97
2019-05-09T19:49:53.817Z,97036.65
2019-05-09T19:52:20.400Z,97031.81
2019-05-09T19:54:46.897Z,97033.36
2019-05-09T19:57:13.636Z,97034.94
2019-05-09T19:59:40.351Z,97039.27
2019-05-09T20:02:07.163Z,97036.63
2019-05-09T20:04:34.804Z,97040.42
2019-05-09T20:07:01.346Z,97049.92
2019-05-09T20:09:38.541Z,97052.34
2019-05-09T20:12:23.666Z,97056.05
2019-05-09T20:14:51.368Z,97052.45
2019-05-09T20:17:17.935Z,97064.82
2019-05-09T20:19:44.538Z,97063.73
2019-05-09T20:22:11.192Z,97065.43
2019-05-09T20:24:37.852Z,97071.95
2019-05-09T20:27:04.706Z,97076.53
2019-05-09T20:29:31.783Z,97081.13
2019-05-09T20:31:58.456Z,97084.91
2019-05-09T20:34:25.190Z,97080.67
2019-05-09T20:36:52.093Z,97087.63
2019-05-09T20:39:24.575Z,97090.11
2019-05-09T20:41:51.323Z,97085.64
2019-05-09T20:44:18.219Z,97089.72
2019-05-09T20:46:44.844Z,97093.84
2019-05-09T20:49:11.384Z,97093.76
2019-05-09T20:51:38.006Z,97099.87
2019-05-09T20:54:20.048Z,97101.02
2019-05-09T20:56:34.271Z,97102.50
2019-05-09T20:59:01.480Z,97099.64
2019-05-09T21:01:31.167Z,97102.73
2019-05-09T21:04:01.522Z,97107.20
2019-05-09T21:06:28.618Z,97111.94
2019-05-09T21:09:00.260Z,97118.82
2019-05-09T21:11:29.729Z,97127.72
2019-05-09T21:13:58.381Z,97124.45
2019-05-09T21:16:25.556Z,97135.81
2019-05-09T21:18:52.133Z,97132.33
2019-05-09T21:21:19.918Z,97134.03
2019-05-09T21:23:48.627Z,97132.88
2019-05-09T21:26:15.156Z,97134.70
2019-05-09T21:28:41.842Z,97138.98
2019-05-09T21:31:08.581Z,97152.33
2019-05-09T21:33:38.245Z,97148.85
2019-05-09T21:36:04.989Z,97156.27
2019-05-09T21:38:31.516Z,97155.34
2019-05-09T21:40:58.304Z,97160.77
2019-05-09T21:43:24.996Z,97172.28
2019-05-09T21:45:51.489Z,97169.66
2019-05-09T21:48:18.419Z,97172.87
2019-05-09T21:50:45.054Z,97172.41
2019-05-09T21:53:11.583Z,97173.99
2019-05-09T21:55:38.379Z,97184.35
2019-05-09T21:58:05.948Z,97186.63
2019-05-09T22:00:40.253Z,97188.37
2019-05-09T22:03:06.998Z,97193.35
2019-05-09T22:05:34.114Z,97197.38
2019-05-09T22:08:00.859Z,97192.66
2019-05-09T22:10:28.020Z,97193.58
2019-05-09T22:12:54.961Z,97195.74
2019-05-09T22:15:21.596Z,97198.70
2019-05-09T22:17:48.472Z,97198.20
2019-05-09T22:20:15.216Z,97210.95
2019-05-09T22:22:42.050Z,97214.47
2019-05-09T22:25:08.964Z,97211.45
2019-05-09T22:27:35.836Z,97215.74
2019-05-09T22:30:05.237Z,97208.71
2019-05-09T22:32:31.720Z,97219.72
2019-05-09T22:34:58.282Z,97221.84
2019-05-09T22:37:24.979Z,97220.26
2019-05-09T22:39:52.045Z,97218.87
2019-05-09T22:42:18.800Z,97223.20
2019-05-09T22:44:45.709Z,97223.27
2019-05-09T22:47:12.209Z,97228.88
2019-05-09T22:49:38.704Z,97226.83
2019-05-09T22:52:05.404Z,97230.98
2019-05-09T22:54:32.174Z,97228.28
2019-05-09T22:56:59.108Z,97235.17
2019-05-09T22:59:25.811Z,97224.13
2019-05-09T23:01:52.361Z,97233.78
2019-05-09T23:04:18.891Z,97231.08
2019-05-09T23:06:45.655Z,97238.92
2019-05-09T23:09:12.158Z,97235.77
2019-05-09T23:11:38.713Z,97243.50
2019-05-09T23:14:05.278Z,97242.72
2019-05-09T23:16:35.458Z,97251.14
2019-05-09T23:19:02.077Z,97246.98
2019-05-09T23:21:29.299Z,97252.19
2019-05-09T23:23:59.092Z,97252.19
2019-05-09T23:26:25.800Z,97258.69
2019-05-09T23:28:52.344Z,97257.63
2019-05-09T23:31:26.228Z,97261.89
2019-05-09T23:33:52.723Z,97263.03
2019-05-09T23:36:19.434Z,97259.22
2019-05-09T23:39:04.131Z,97263.87
2019-05-09T23:41:31.134Z,97260.53
2019-05-09T23:43:57.640Z,97260.08
2019-05-09T23:46:24.828Z,97260.30
2019-05-09T23:48:51.444Z,97254.37
2019-05-09T23:51:18.043Z,97256.35
2019-05-09T23:53:52.007Z,97247.80
2019-05-09T23:56:37.819Z,97247.05
2019-05-09T23:59:22.538Z,97249.95
